Time;durP1;ratioP1;P1;durP2;ratioP2;P2;SDS_P1;SDS_P2;PMS_P1;PMS_P2;Temp;Humidity;BMP_temperature;BMP_pressure;BME280_temperature;BME280_humidity;BME280_pressure;Samples;Min_cycle;Max_cycle;Signal;HPM_P1;HPM_P2
2023/12/30 00:00:19;;;;;;;11.90;1.50;;;6.60;99.90;;;;;;5058385;28;20198;-76
2023/12/30 00:02:45;;;;;;;8.70;1.27;;;6.60;99.90;;;;;;5070114;28;20127;-77
2023/12/30 00:05:10;;;;;;;8.40;1.00;;;6.60;99.90;;;;;;5059136;28;20068;-76
2023/12/30 00:07:36;;;;;;;5.72;0.93;;;6.60;99.90;;;;;;5060751;28;20106;-77
2023/12/30 00:10:02;;;;;;;11.50;2.03;;;6.50;99.90;;;;;;5054776;28;20396;-76
2023/12/30 00:12:27;;;;;;;9.25;1.20;;;6.50;99.90;;;;;;5059427;28;20052;-76
2023/12/30 00:14:53;;;;;;;8.65;1.40;;;6.50;99.90;;;;;;5059989;28;20961;-77
2023/12/30 00:17:18;;;;;;;5.78;1.13;;;6.40;99.90;;;;;;5039819;28;20048;-79
2023/12/30 00:19:45;;;;;;;9.20;1.67;;;6.50;99.90;;;;;;5050031;28;20516;-78
2023/12/30 00:22:11;;;;;;;9.82;1.35;;;6.50;99.90;;;;;;5068919;28;20047;-76
2023/12/30 00:24:37;;;;;;;7.93;1.20;;;6.40;99.90;;;;;;5057822;28;20048;-77
2023/12/30 00:27:03;;;;;;;8.55;1.30;;;6.40;99.90;;;;;;5056738;28;20411;-76
2023/12/30 00:29:29;;;;;;;12.13;1.58;;;6.40;99.90;;;;;;5061531;28;20053;-79
2023/12/30 00:31:54;;;;;;;10.82;1.52;;;6.40;99.90;;;;;;5068996;28;20434;-79
2023/12/30 00:34:20;;;;;;;6.30;1.55;;;6.30;99.90;;;;;;5067716;28;20102;-77
2023/12/30 00:36:46;;;;;;;6.63;1.13;;;6.30;99.90;;;;;;5069346;28;20044;-77
2023/12/30 00:39:12;;;;;;;12.13;1.88;;;6.30;99.90;;;;;;5069626;28;20037;-76
2023/12/30 00:41:37;;;;;;;6.63;1.92;;;6.30;99.90;;;;;;5057426;28;20032;-76
2023/12/30 00:44:03;;;;;;;12.32;2.05;;;6.30;99.90;;;;;;5050209;28;20076;-76
2023/12/30 00:46:29;;;;;;;6.50;1.02;;;6.30;99.90;;;;;;5061143;28;20040;-79
2023/12/30 00:48:54;;;;;;;9.55;1.23;;;6.20;99.90;;;;;;5055129;28;20052;-76
2023/12/30 00:51:20;;;;;;;9.82;1.20;;;6.50;99.90;;;;;;5051699;28;20076;-77
2023/12/30 00:53:45;;;;;;;9.13;1.98;;;6.20;99.90;;;;;;5057325;28;20063;-76
2023/12/30 00:56:11;;;;;;;7.22;1.35;;;6.80;99.90;;;;;;5055972;28;20091;-77
2023/12/30 00:58:37;;;;;;;7.60;1.27;;;6.30;99.90;;;;;;5059565;28;20047;-77
2023/12/30 01:01:03;;;;;;;11.63;1.17;;;6.20;99.90;;;;;;5062390;28;20045;-76
2023/12/30 01:03:28;;;;;;;6.43;1.00;;;6.30;99.90;;;;;;5058169;28;20063;-76
2023/12/30 01:05:54;;;;;;;6.97;1.20;;;6.30;99.90;;;;;;5050670;28;20184;-80
2023/12/30 01:08:19;;;;;;;9.15;1.40;;;6.30;99.90;;;;;;5057179;28;20060;-80
2023/12/30 01:10:45;;;;;;;6.70;1.20;;;6.20;99.90;;;;;;5063222;28;20086;-77
2023/12/30 01:13:11;;;;;;;8.63;1.10;;;6.20;99.90;;;;;;5054449;28;20045;-76
2023/12/30 01:15:36;;;;;;;11.57;1.05;;;6.20;99.90;;;;;;5062123;28;20668;-77
2023/12/30 01:18:03;;;;;;;7.05;1.05;;;6.20;99.90;;;;;;5049467;28;20107;-76
2023/12/30 01:20:30;;;;;;;6.28;1.38;;;6.20;99.90;;;;;;5057408;28;20060;-79
2023/12/30 01:22:55;;;;;;;6.95;1.52;;;6.20;99.90;;;;;;5065538;28;20063;-76
2023/12/30 01:25:21;;;;;;;11.45;1.30;;;6.40;99.90;;;;;;5057920;28;20040;-76
2023/12/30 01:27:47;;;;;;;6.60;0.82;;;6.30;99.90;;;;;;5050796;28;20532;-76
2023/12/30 01:30:12;;;;;;;7.97;1.25;;;6.30;99.90;;;;;;5051104;28;20139;-77
2023/12/30 01:32:38;;;;;;;7.75;1.45;;;6.20;99.90;;;;;;5062603;28;20087;-76
2023/12/30 01:35:04;;;;;;;10.85;1.35;;;6.20;99.90;;;;;;5058168;28;20556;-79
2023/12/30 01:37:30;;;;;;;12.48;1.63;;;6.20;99.90;;;;;;5059905;28;20099;-77
2023/12/30 01:39:56;;;;;;;7.78;0.80;;;6.30;99.90;;;;;;5050883;28;20481;-77
2023/12/30 01:42:21;;;;;;;10.35;1.02;;;6.20;99.90;;;;;;5049052;28;20056;-77
2023/12/30 01:44:47;;;;;;;7.10;0.85;;;6.20;99.90;;;;;;5060510;28;20044;-76
2023/12/30 01:47:13;;;;;;;9.88;1.10;;;6.20;99.90;;;;;;5062397;28;20052;-76
2023/12/30 01:49:39;;;;;;;8.80;1.33;;;6.20;99.90;;;;;;5046780;28;20044;-78
2023/12/30 01:52:06;;;;;;;7.00;0.90;;;6.10;99.90;;;;;;5048145;28;20106;-77
2023/12/30 01:54:32;;;;;;;8.65;1.13;;;6.20;99.90;;;;;;5057296;28;20595;-77
2023/12/30 01:56:59;;;;;;;6.63;0.82;;;6.10;99.90;;;;;;5050679;28;20048;-76
2023/12/30 01:59:28;;;;;;;8.00;1.00;;;6.20;99.90;;;;;;5067543;28;20430;-76
2023/12/30 02:01:56;;;;;;;10.07;0.93;;;6.10;99.90;;;;;;5052487;28;20059;-78
2023/12/30 02:04:24;;;;;;;9.60;1.10;;;6.20;99.90;;;;;;5050330;28;20102;-76
2023/12/30 02:06:50;;;;;;;6.72;1.00;;;6.20;99.90;;;;;;5050944;28;20061;-79
2023/12/30 02:09:16;;;;;;;5.88;0.98;;;6.20;99.90;;;;;;5061341;28;20531;-76
2023/12/30 02:11:42;;;;;;;8.95;1.15;;;6.20;99.90;;;;;;5055926;28;20044;-76
2023/12/30 02:14:29;;;;;;;7.30;1.20;;;6.20;99.90;;;;;;5056017;28;20044;-76
2023/12/30 02:16:55;;;;;;;7.00;0.93;;;6.20;99.90;;;;;;5055336;28;20492;-79
2023/12/30 02:19:20;;;;;;;8.85;1.33;;;6.30;99.90;;;;;;5054306;28;20052;-77
2023/12/30 02:21:46;;;;;;;7.43;1.33;;;6.30;99.90;;;;;;5061537;28;20040;-77
2023/12/30 02:24:12;;;;;;;7.30;1.00;;;6.30;99.90;;;;;;5065600;28;20102;-76
2023/12/30 02:26:39;;;;;;;12.48;1.67;;;6.30;99.90;;;;;;5055543;28;20051;-76
2023/12/30 02:29:05;;;;;;;4.97;0.93;;;6.30;99.90;;;;;;5063238;28;20049;-77
2023/12/30 02:31:31;;;;;;;9.90;1.13;;;6.30;99.90;;;;;;5065412;28;20075;-76
2023/12/30 02:33:56;;;;;;;7.70;1.05;;;6.30;99.90;;;;;;5055310;28;20449;-76
2023/12/30 02:36:22;;;;;;;6.55;1.58;;;6.30;99.90;;;;;;5071001;28;20082;-76
2023/12/30 02:38:48;;;;;;;7.80;1.05;;;6.30;99.90;;;;;;5062184;28;20080;-77
2023/12/30 02:41:13;;;;;;;8.00;1.08;;;6.40;99.90;;;;;;5056928;28;20128;-76
2023/12/30 02:44:00;;;;;;;10.70;0.98;;;6.40;99.90;;;;;;5066703;28;20048;-77
2023/12/30 02:46:26;;;;;;;8.93;1.73;;;6.40;99.90;;;;;;5054737;28;20087;-77
2023/12/30 02:48:52;;;;;;;8.07;1.00;;;6.40;99.90;;;;;;5054499;28;20087;-76
2023/12/30 02:51:18;;;;;;;7.43;1.00;;;6.40;99.90;;;;;;5056741;28;20045;-76
2023/12/30 02:53:44;;;;;;;8.35;1.25;;;6.40;99.90;;;;;;5067372;28;20045;-77
2023/12/30 02:56:20;;;;;;;4.55;0.85;;;6.40;99.90;;;;;;5064644;28;20173;-79
2023/12/30 02:58:58;;;;;;;3.63;1.02;;;6.50;99.90;;;;;;5060658;28;20048;-76
2023/12/30 03:01:25;;;;;;;14.07;1.33;;;6.50;99.90;;;;;;5061446;28;20056;-79
2023/12/30 03:03:53;;;;;;;6.65;1.08;;;6.80;99.90;;;;;;5058461;28;20053;-76
2023/12/30 03:06:21;;;;;;;9.57;1.65;;;6.50;99.90;;;;;;5060655;28;20060;-76
2023/12/30 03:08:49;;;;;;;7.45;0.90;;;6.50;99.90;;;;;;5066284;28;20188;-76
2023/12/30 03:11:16;;;;;;;7.53;1.17;;;6.50;99.90;;;;;;5062683;28;20124;-78
2023/12/30 03:13:42;;;;;;;11.55;1.00;;;6.60;99.90;;;;;;5061432;28;20056;-76
2023/12/30 03:16:08;;;;;;;7.18;1.40;;;6.80;99.90;;;;;;5068769;28;20056;-76
2023/12/30 03:18:34;;;;;;;5.13;0.90;;;6.60;99.90;;;;;;5063849;28;20127;-79
2023/12/30 03:20:59;;;;;;;8.77;1.02;;;6.60;99.90;;;;;;5055088;28;20536;-77
2023/12/30 03:23:25;;;;;;;7.50;1.20;;;6.60;99.90;;;;;;5047472;28;20457;-77
2023/12/30 03:25:51;;;;;;;10.57;1.00;;;6.60;99.90;;;;;;5059658;28;20480;-77
2023/12/30 03:28:17;;;;;;;8.80;1.08;;;6.70;99.90;;;;;;5055090;28;20420;-77
2023/12/30 03:30:44;;;;;;;10.30;1.40;;;6.60;99.90;;;;;;5055812;28;20040;-77
2023/12/30 03:33:09;;;;;;;11.90;1.38;;;6.60;99.90;;;;;;5056920;28;20064;-76
2023/12/30 03:35:35;;;;;;;10.95;1.45;;;6.60;99.90;;;;;;5067056;28;20045;-77
2023/12/30 03:38:01;;;;;;;8.68;1.30;;;6.70;99.90;;;;;;5061938;28;20420;-76
2023/12/30 03:40:28;;;;;;;10.98;1.20;;;6.60;99.90;;;;;;5054903;28;20045;-77
2023/12/30 03:42:53;;;;;;;10.98;1.30;;;6.60;99.90;;;;;;5061335;28;20538;-76
2023/12/30 03:45:19;;;;;;;9.57;1.00;;;6.60;99.90;;;;;;5063240;28;20074;-77
2023/12/30 03:47:44;;;;;;;7.28;0.85;;;6.50;99.90;;;;;;5070205;28;20044;-77
2023/12/30 03:50:11;;;;;;;13.45;1.50;;;6.50;99.90;;;;;;5063601;28;20045;-77
2023/12/30 03:52:36;;;;;;;7.28;1.52;;;6.50;99.90;;;;;;5068227;28;20102;-77
2023/12/30 03:55:03;;;;;;;7.80;0.85;;;6.40;99.90;;;;;;5053610;28;20045;-77
2023/12/30 03:57:28;;;;;;;12.52;1.48;;;6.40;99.90;;;;;;5064707;28;20446;-77
2023/12/30 03:59:54;;;;;;;3.72;1.45;;;6.80;99.90;;;;;;5065680;28;20056;-78
2023/12/30 04:02:21;;;;;;;7.82;1.27;;;6.40;99.90;;;;;;5055416;28;20051;-77
2023/12/30 04:04:47;;;;;;;7.03;0.93;;;6.30;99.90;;;;;;5054200;28;20060;-77
2023/12/30 04:07:13;;;;;;;9.65;1.08;;;6.30;99.90;;;;;;5068093;28;20048;-76
2023/12/30 04:09:39;;;;;;;9.15;1.10;;;6.30;99.90;;;;;;5062246;28;20040;-78
2023/12/30 04:12:05;;;;;;;11.73;1.17;;;6.30;99.90;;;;;;5061139;28;20489;-78
2023/12/30 04:14:31;;;;;;;11.55;1.10;;;6.20;99.90;;;;;;5063330;28;20048;-77
2023/12/30 04:16:56;;;;;;;11.48;1.55;;;6.20;99.90;;;;;;5064513;28;20178;-77
2023/12/30 04:19:23;;;;;;;8.23;1.10;;;6.20;99.90;;;;;;5043835;28;20087;-77
2023/12/30 04:21:49;;;;;;;12.10;1.50;;;6.20;99.90;;;;;;5054285;28;20128;-78
2023/12/30 04:24:15;;;;;;;12.55;1.50;;;6.30;99.90;;;;;;5062163;28;20094;-79
2023/12/30 04:26:42;;;;;;;11.38;1.67;;;6.30;99.90;;;;;;5058584;28;20074;-77
2023/12/30 04:29:09;;;;;;;8.20;1.38;;;6.70;99.90;;;;;;5066222;28;20048;-77
2023/12/30 04:31:34;;;;;;;17.90;1.63;;;6.30;99.90;;;;;;5058839;28;20544;-77
2023/12/30 04:34:00;;;;;;;7.63;1.10;;;6.30;99.90;;;;;;5067194;28;20162;-79
2023/12/30 04:36:26;;;;;;;7.18;1.02;;;6.30;99.90;;;;;;5056786;28;20139;-77
2023/12/30 04:38:51;;;;;;;6.38;1.05;;;6.40;99.90;;;;;;5058379;28;20392;-77
2023/12/30 04:41:17;;;;;;;10.63;1.73;;;6.40;99.90;;;;;;5051467;28;20536;-77
2023/12/30 04:43:42;;;;;;;10.02;1.20;;;6.40;99.90;;;;;;5065310;28;20049;-76
2023/12/30 04:46:10;;;;;;;9.73;1.27;;;6.40;99.90;;;;;;5052491;28;20577;-77
2023/12/30 04:48:36;;;;;;;10.48;1.35;;;6.40;99.90;;;;;;5062973;28;20052;-82
2023/12/30 04:51:01;;;;;;;14.90;1.65;;;6.40;99.90;;;;;;5052949;28;20473;-77
2023/12/30 04:53:27;;;;;;;12.00;1.88;;;6.40;99.90;;;;;;5049420;28;20052;-77
2023/12/30 04:55:52;;;;;;;9.15;1.10;;;6.40;99.90;;;;;;5063811;28;20051;-77
2023/12/30 04:58:18;;;;;;;10.13;1.17;;;6.40;99.90;;;;;;5062997;28;20044;-77
2023/12/30 05:00:43;;;;;;;8.95;1.10;;;6.40;99.90;;;;;;5061466;28;20049;-78
2023/12/30 05:03:09;;;;;;;11.40;1.55;;;6.40;99.90;;;;;;5065046;28;20058;-77
2023/12/30 05:05:35;;;;;;;7.38;0.90;;;6.40;99.90;;;;;;5050445;28;20052;-79
2023/12/30 05:08:01;;;;;;;5.32;1.02;;;6.40;99.90;;;;;;5050221;28;20053;-77
2023/12/30 05:10:27;;;;;;;10.40;1.67;;;6.40;99.90;;;;;;5059558;28;20052;-77
2023/12/30 05:12:53;;;;;;;9.43;1.33;;;6.40;99.90;;;;;;5053520;28;20403;-77
2023/12/30 05:15:18;;;;;;;9.85;1.30;;;6.40;99.90;;;;;;5051015;28;20060;-77
2023/12/30 05:17:44;;;;;;;7.65;0.93;;;6.50;99.90;;;;;;5058687;28;20052;-79
2023/12/30 05:20:12;;;;;;;11.77;1.35;;;6.30;99.90;;;;;;5053076;28;20093;-77
2023/12/30 05:22:39;;;;;;;12.43;1.70;;;6.30;99.90;;;;;;5051576;28;20045;-76
2023/12/30 05:25:05;;;;;;;11.45;1.80;;;6.60;99.90;;;;;;5055974;28;20048;-77
2023/12/30 05:27:31;;;;;;;12.02;1.30;;;6.30;99.90;;;;;;5050622;28;20045;-78
2023/12/30 05:29:57;;;;;;;6.78;1.08;;;6.30;99.90;;;;;;5050578;28;20084;-76
2023/12/30 05:32:22;;;;;;;9.95;1.35;;;6.30;99.90;;;;;;5053856;28;20092;-77
2023/12/30 05:34:48;;;;;;;10.43;1.70;;;6.30;99.90;;;;;;5057669;28;20045;-77
2023/12/30 05:37:14;;;;;;;8.75;1.38;;;6.20;99.90;;;;;;5061970;28;20253;-81
2023/12/30 05:39:39;;;;;;;10.93;1.95;;;6.20;99.90;;;;;;5058953;28;20664;-77
2023/12/30 05:42:06;;;;;;;11.50;1.50;;;6.20;99.90;;;;;;5064999;28;20045;-77
2023/12/30 05:44:32;;;;;;;9.93;1.25;;;6.20;99.90;;;;;;5064215;28;20052;-77
2023/12/30 05:46:58;;;;;;;15.13;1.35;;;6.20;99.90;;;;;;5058621;28;20084;-77
2023/12/30 05:49:24;;;;;;;11.27;1.50;;;6.20;99.90;;;;;;5056727;28;20142;-81
2023/12/30 05:51:50;;;;;;;9.15;1.20;;;6.20;99.90;;;;;;5054550;28;20163;-77
2023/12/30 05:54:16;;;;;;;10.52;1.38;;;6.20;99.90;;;;;;5065688;28;20119;-77
2023/12/30 05:56:41;;;;;;;7.78;1.30;;;6.20;99.90;;;;;;5071985;28;20048;-77
2023/12/30 05:59:07;;;;;;;13.35;1.30;;;6.20;99.90;;;;;;5058370;28;20044;-77
2023/12/30 06:01:33;;;;;;;16.65;1.52;;;6.30;99.90;;;;;;5060965;28;20044;-77
2023/12/30 06:03:58;;;;;;;10.65;1.33;;;6.30;99.90;;;;;;5057583;28;20049;-76
2023/12/30 06:06:24;;;;;;;8.00;1.23;;;6.40;99.90;;;;;;5056600;28;20048;-78
2023/12/30 06:08:50;;;;;;;9.23;1.10;;;6.30;99.90;;;;;;5055454;28;20048;-76
2023/12/30 06:11:15;;;;;;;7.25;1.08;;;6.30;99.90;;;;;;5056537;28;20053;-77
2023/12/30 06:13:41;;;;;;;11.93;1.63;;;6.30;99.90;;;;;;5067513;28;20051;-77
2023/12/30 06:16:10;;;;;;;9.35;1.33;;;6.30;99.90;;;;;;5055598;28;20045;-77
2023/12/30 06:18:37;;;;;;;15.75;2.10;;;6.30;99.90;;;;;;5056384;28;20048;-77
2023/12/30 06:21:04;;;;;;;5.53;0.95;;;6.30;99.90;;;;;;5064503;28;20127;-77
2023/12/30 06:23:31;;;;;;;13.52;1.33;;;6.30;99.90;;;;;;5055891;28;20056;-78
2023/12/30 06:25:58;;;;;;;8.65;1.35;;;6.20;99.90;;;;;;5063218;28;20409;-77
2023/12/30 06:28:26;;;;;;;12.60;2.05;;;6.20;99.90;;;;;;5068771;28;20056;-76
2023/12/30 06:30:52;;;;;;;7.88;1.30;;;6.30;99.90;;;;;;5059183;28;20045;-78
2023/12/30 06:33:18;;;;;;;12.20;1.80;;;6.20;99.90;;;;;;5058208;28;20075;-76
2023/12/30 06:35:43;;;;;;;10.30;1.45;;;6.20;99.90;;;;;;5062866;28;20569;-76
2023/12/30 06:38:09;;;;;;;13.50;2.00;;;6.20;99.90;;;;;;5061190;28;20052;-77
2023/12/30 06:40:35;;;;;;;13.57;1.83;;;6.20;99.90;;;;;;5058249;28;20123;-77
2023/12/30 06:43:00;;;;;;;12.63;1.27;;;6.10;99.90;;;;;;5060027;28;20049;-77
2023/12/30 06:45:26;;;;;;;10.80;1.27;;;6.10;99.90;;;;;;5035354;28;20049;-77
2023/12/30 06:47:51;;;;;;;16.60;2.78;;;6.10;99.90;;;;;;5067486;28;20044;-77
2023/12/30 06:50:19;;;;;;;9.13;2.10;;;6.00;99.90;;;;;;5060414;28;20429;-77
2023/12/30 06:52:45;;;;;;;10.65;1.40;;;6.10;99.90;;;;;;5059203;28;20049;-81
2023/12/30 06:55:13;;;;;;;9.25;1.17;;;6.00;99.90;;;;;;5057524;28;20047;-77
2023/12/30 06:57:40;;;;;;;10.20;1.40;;;6.00;99.90;;;;;;5052125;28;20048;-77
2023/12/30 07:00:07;;;;;;;9.70;1.23;;;6.00;99.90;;;;;;5063459;28;20041;-78
2023/12/30 07:02:33;;;;;;;13.40;2.03;;;5.90;99.90;;;;;;5064123;28;20045;-77
2023/12/30 07:04:59;;;;;;;11.23;1.30;;;5.90;99.90;;;;;;5054458;28;20106;-77
2023/12/30 07:07:25;;;;;;;8.98;1.40;;;5.90;99.90;;;;;;5065431;28;20056;-77
2023/12/30 07:09:54;;;;;;;8.93;1.35;;;6.60;99.90;;;;;;5068328;28;20036;-79
2023/12/30 07:12:20;;;;;;;11.90;1.80;;;5.90;99.90;;;;;;5042914;28;20091;-77
2023/12/30 07:14:46;;;;;;;7.53;1.88;;;5.90;99.90;;;;;;5050951;28;20456;-79
2023/12/30 07:17:11;;;;;;;13.65;1.60;;;5.90;99.90;;;;;;5066886;28;20056;-78
2023/12/30 07:19:37;;;;;;;14.88;1.42;;;5.90;99.90;;;;;;5062577;28;20057;-78
2023/12/30 07:22:03;;;;;;;10.43;1.60;;;5.80;99.90;;;;;;5071303;28;20389;-78
2023/12/30 07:24:29;;;;;;;9.05;1.30;;;5.90;99.90;;;;;;5067374;28;20064;-81
2023/12/30 07:26:54;;;;;;;11.35;1.60;;;5.90;99.90;;;;;;5068789;28;20531;-79
2023/12/30 07:29:20;;;;;;;17.52;2.55;;;5.80;99.90;;;;;;5066673;28;20057;-81
2023/12/30 07:31:46;;;;;;;8.95;1.30;;;6.20;99.90;;;;;;5051599;28;20417;-82
2023/12/30 07:34:11;;;;;;;13.45;1.63;;;5.90;99.90;;;;;;5044912;28;20060;-80
2023/12/30 07:36:37;;;;;;;14.90;2.58;;;5.90;99.90;;;;;;5061977;28;20041;-81
2023/12/30 07:39:03;;;;;;;5.15;1.15;;;5.90;99.90;;;;;;5054245;28;20043;-81
2023/12/30 07:41:28;;;;;;;10.55;1.55;;;5.90;99.90;;;;;;5051025;28;20080;-81
2023/12/30 07:43:56;;;;;;;7.28;1.45;;;5.90;99.90;;;;;;5052418;28;20037;-81
2023/12/30 07:46:25;;;;;;;10.52;1.63;;;5.90;99.90;;;;;;5071001;28;20495;-80
2023/12/30 07:48:51;;;;;;;10.32;1.77;;;5.90;99.90;;;;;;5068860;28;20061;-80
2023/12/30 07:51:16;;;;;;;9.45;1.73;;;5.90;99.90;;;;;;5058078;28;20052;-81
2023/12/30 07:53:42;;;;;;;9.82;1.55;;;5.90;99.90;;;;;;5052434;28;20163;-82
2023/12/30 07:56:08;;;;;;;10.60;2.10;;;5.90;99.90;;;;;;5060605;28;20044;-81
2023/12/30 07:58:34;;;;;;;10.52;1.83;;;5.90;99.90;;;;;;5069727;28;20514;-81
2023/12/30 08:01:01;;;;;;;10.40;1.30;;;5.90;99.90;;;;;;5052241;28;20049;-83
2023/12/30 08:03:27;;;;;;;6.43;1.52;;;5.90;99.90;;;;;;5037977;28;20055;-82
2023/12/30 08:05:53;;;;;;;14.02;1.38;;;6.40;99.90;;;;;;5042906;28;20557;-80
2023/12/30 08:08:19;;;;;;;14.43;1.98;;;5.90;99.90;;;;;;5070274;28;20045;-81
2023/12/30 08:10:45;;;;;;;12.40;1.42;;;5.90;99.90;;;;;;5066163;28;20059;-84
2023/12/30 08:13:11;;;;;;;17.08;1.75;;;5.90;99.90;;;;;;5057866;28;20037;-82
2023/12/30 08:15:36;;;;;;;10.57;1.65;;;5.90;99.90;;;;;;5053752;28;20041;-81
2023/12/30 08:18:02;;;;;;;8.57;1.40;;;5.90;99.90;;;;;;5057400;28;20493;-81
2023/12/30 08:20:28;;;;;;;10.07;1.25;;;5.90;99.90;;;;;;5051629;28;20140;-82
2023/12/30 08:22:54;;;;;;;12.75;2.85;;;6.00;99.90;;;;;;5065695;28;20143;-81
2023/12/30 08:25:20;;;;;;;9.98;1.92;;;6.00;99.90;;;;;;5070128;28;20094;-84
2023/12/30 08:27:46;;;;;;;10.93;1.10;;;6.00;99.90;;;;;;5065297;28;20067;-82
2023/12/30 08:30:13;;;;;;;6.22;1.02;;;6.00;99.90;;;;;;5067544;28;20484;-81
2023/12/30 08:32:39;;;;;;;8.77;1.30;;;6.00;99.90;;;;;;5070077;28;20079;-82
2023/12/30 08:35:08;;;;;;;12.02;1.50;;;6.00;99.90;;;;;;5066563;28;20465;-81
2023/12/30 08:37:36;;;;;;;9.38;1.42;;;5.90;99.90;;;;;;5067048;28;20048;-83
2023/12/30 08:40:06;;;;;;;11.48;1.75;;;6.00;99.90;;;;;;5060208;28;20459;-81
2023/12/30 08:42:34;;;;;;;10.50;1.67;;;5.90;99.90;;;;;;5060319;28;20040;-81
2023/12/30 08:45:01;;;;;;;7.47;1.15;;;5.90;99.90;;;;;;5049522;28;20063;-83
2023/12/30 08:47:31;;;;;;;8.70;1.30;;;5.90;99.90;;;;;;5051445;28;20089;-82
2023/12/30 08:49:57;;;;;;;17.90;1.48;;;5.90;99.90;;;;;;5058468;28;20040;-82
2023/12/30 08:52:23;;;;;;;12.35;1.35;;;5.90;99.90;;;;;;5057888;28;20143;-82
2023/12/30 08:54:48;;;;;;;11.30;1.85;;;5.90;99.90;;;;;;5063324;28;20041;-82
2023/12/30 08:57:14;;;;;;;9.40;1.30;;;5.90;99.90;;;;;;5051853;28;20052;-83
2023/12/30 08:59:40;;;;;;;9.27;1.50;;;6.30;99.90;;;;;;5065442;28;20131;-83
2023/12/30 09:02:06;;;;;;;11.35;1.42;;;5.90;99.90;;;;;;5053194;28;20093;-82
2023/12/30 09:04:31;;;;;;;8.15;1.38;;;5.90;99.90;;;;;;5068558;28;20416;-82
2023/12/30 09:06:57;;;;;;;12.32;1.50;;;5.90;99.90;;;;;;5062631;28;20051;-83
2023/12/30 09:09:22;;;;;;;10.75;1.48;;;5.90;99.90;;;;;;5057329;28;20041;-82
2023/12/30 09:11:48;;;;;;;9.63;1.40;;;5.90;99.90;;;;;;5054284;28;20129;-83
2023/12/30 09:14:14;;;;;;;10.35;1.60;;;6.00;99.90;;;;;;5049519;28;20041;-85
2023/12/30 09:16:39;;;;;;;11.45;1.45;;;6.00;99.90;;;;;;5066160;28;20085;-82
2023/12/30 09:19:05;;;;;;;10.18;1.50;;;6.00;99.90;;;;;;5063691;28;20514;-82
2023/12/30 09:21:31;;;;;;;11.50;1.75;;;6.00;99.90;;;;;;5056993;28;20053;-83
2023/12/30 09:23:59;;;;;;;10.30;1.30;;;6.10;99.90;;;;;;5067318;28;20123;-82
2023/12/30 09:26:25;;;;;;;8.15;0.98;;;6.10;99.90;;;;;;5065838;28;20051;-84
2023/12/30 09:28:52;;;;;;;7.82;1.20;;;6.10;99.90;;;;;;5052613;28;20128;-81
2023/12/30 09:31:20;;;;;;;10.35;1.58;;;6.10;99.90;;;;;;5050456;28;20079;-81
2023/12/30 09:33:47;;;;;;;15.63;1.92;;;6.70;99.90;;;;;;5056769;28;20487;-81
2023/12/30 09:36:13;;;;;;;11.77;1.70;;;6.10;99.90;;;;;;5049585;28;20100;-82
2023/12/30 09:38:38;;;;;;;10.90;1.30;;;6.20;99.90;;;;;;5066328;28;20056;-81
2023/12/30 09:41:05;;;;;;;12.27;1.50;;;6.20;99.90;;;;;;5056691;28;20045;-79
2023/12/30 09:43:31;;;;;;;10.52;2.08;;;6.20;99.90;;;;;;5048442;28;20508;-81
2023/12/30 09:45:57;;;;;;;11.32;1.55;;;6.20;99.90;;;;;;5055798;28;20040;-81
2023/12/30 09:48:25;;;;;;;10.73;1.35;;;6.20;99.90;;;;;;5063412;28;20044;-80
2023/12/30 09:50:54;;;;;;;6.38;1.20;;;6.30;99.90;;;;;;5036365;28;20053;-80
2023/12/30 09:53:22;;;;;;;11.70;1.15;;;6.30;99.90;;;;;;5048590;28;20060;-79
2023/12/30 09:55:50;;;;;;;9.50;1.45;;;6.30;99.90;;;;;;5032574;28;20087;-79
2023/12/30 09:58:17;;;;;;;10.25;2.45;;;6.30;99.90;;;;;;5068323;28;20075;-79
2023/12/30 10:00:43;;;;;;;9.90;1.40;;;6.50;99.90;;;;;;5059729;28;20055;-79
2023/12/30 10:03:09;;;;;;;16.17;1.35;;;6.40;99.90;;;;;;5050620;28;20737;-79
2023/12/30 10:05:35;;;;;;;7.30;1.02;;;6.40;99.90;;;;;;5051318;28;20098;-79
2023/12/30 10:08:05;;;;;;;9.05;1.45;;;6.50;99.90;;;;;;5051374;28;20419;-77
2023/12/30 10:10:48;;;;;;;7.38;1.60;;;6.50;99.90;;;;;;5051569;28;20053;-77
2023/12/30 10:13:25;;;;;;;12.63;1.42;;;6.50;99.90;;;;;;5051401;28;20056;-77
2023/12/30 10:15:52;;;;;;;11.20;1.40;;;6.60;99.90;;;;;;5058552;28;20056;-77
2023/12/30 10:18:19;;;;;;;10.15;2.13;;;6.60;99.90;;;;;;5034424;28;20048;-77
2023/12/30 10:20:46;;;;;;;10.05;1.42;;;6.60;99.90;;;;;;5050677;28;20063;-77
2023/12/30 10:23:13;;;;;;;16.08;1.45;;;6.60;99.90;;;;;;5051081;28;20133;-77
2023/12/30 10:25:42;;;;;;;11.70;1.70;;;6.60;99.90;;;;;;5050916;28;20060;-77
2023/12/30 10:28:08;;;;;;;9.40;1.60;;;6.60;99.90;;;;;;5053156;28;20071;-79
2023/12/30 10:30:35;;;;;;;13.32;1.38;;;6.60;99.90;;;;;;5054538;28;20076;-79
2023/12/30 10:33:09;;;;;;;9.38;1.67;;;6.60;99.90;;;;;;5054715;28;20063;-79
2023/12/30 10:35:34;;;;;;;11.35;1.58;;;6.70;99.90;;;;;;5073763;28;20051;-79
2023/12/30 10:38:04;;;;;;;6.38;1.85;;;6.60;99.90;;;;;;5074581;28;20037;-79
2023/12/30 10:40:30;;;;;;;11.10;1.92;;;6.60;99.90;;;;;;5058259;28;20207;-79
2023/12/30 10:42:57;;;;;;;7.47;2.17;;;6.60;99.90;;;;;;5054670;28;20053;-79
2023/12/30 10:45:23;;;;;;;10.60;2.20;;;6.60;99.90;;;;;;5054579;28;20060;-79
2023/12/30 10:47:50;;;;;;;10.77;1.85;;;6.60;99.90;;;;;;5054149;28;20041;-79
2023/12/30 10:50:15;;;;;;;8.70;1.83;;;6.60;99.90;;;;;;5054664;28;20052;-79
2023/12/30 10:52:49;;;;;;;14.30;1.92;;;6.60;99.90;;;;;;5055160;28;20075;-79
2023/12/30 10:55:17;;;;;;;8.18;1.88;;;6.70;99.90;;;;;;5073764;28;20595;-79
2023/12/30 10:57:53;;;;;;;12.05;1.48;;;6.70;99.90;;;;;;5074059;28;20082;-79
2023/12/30 11:00:20;;;;;;;14.90;1.52;;;6.70;99.90;;;;;;5073392;28;20041;-79
2023/12/30 11:02:47;;;;;;;11.68;1.52;;;6.80;99.90;;;;;;5053062;28;20115;-79
2023/12/30 11:05:29;;;;;;;10.88;1.48;;;6.80;99.90;;;;;;5073358;28;20050;-79
2023/12/30 11:07:56;;;;;;;11.32;2.13;;;6.90;99.90;;;;;;5069178;28;20501;-79
2023/12/30 11:10:22;;;;;;;8.50;1.33;;;6.90;99.90;;;;;;5053762;28;20107;-80
2023/12/30 11:12:48;;;;;;;8.88;1.52;;;6.90;99.90;;;;;;5053656;28;20103;-79
2023/12/30 11:15:24;;;;;;;10.35;1.40;;;7.00;99.90;;;;;;5036621;28;20045;-80
2023/12/30 11:17:49;;;;;;;7.55;1.38;;;7.50;99.90;;;;;;5036909;28;20056;-79
2023/12/30 11:20:23;;;;;;;8.52;1.83;;;7.20;99.90;;;;;;5052670;28;20048;-79
2023/12/30 11:22:49;;;;;;;9.70;1.30;;;7.30;99.90;;;;;;5053716;28;20045;-79
2023/12/30 11:25:14;;;;;;;9.63;1.33;;;7.30;99.90;;;;;;5053578;28;20385;-79
2023/12/30 11:27:40;;;;;;;10.68;1.75;;;7.30;99.90;;;;;;5053618;28;20451;-79
2023/12/30 11:30:15;;;;;;;6.50;1.15;;;7.60;99.90;;;;;;5053258;28;20513;-79
2023/12/30 11:32:41;;;;;;;12.10;1.60;;;7.40;99.90;;;;;;5053019;28;20123;-79
2023/12/30 11:35:07;;;;;;;9.30;1.35;;;7.40;99.90;;;;;;5052461;28;20119;-80
2023/12/30 11:37:37;;;;;;;9.93;1.77;;;7.50;99.90;;;;;;5054421;28;20057;-80
2023/12/30 11:40:04;;;;;;;10.98;1.30;;;7.50;99.90;;;;;;5072602;28;20051;-80
2023/12/30 11:42:30;;;;;;;9.05;1.10;;;7.50;99.90;;;;;;5072922;28;20052;-79
2023/12/30 11:44:56;;;;;;;8.70;1.65;;;7.70;99.90;;;;;;5073280;28;20170;-79
2023/12/30 11:47:22;;;;;;;9.52;1.27;;;7.60;99.90;;;;;;5073151;28;20044;-79
2023/12/30 11:49:47;;;;;;;10.10;1.77;;;7.60;99.90;;;;;;5073416;28;20080;-79
2023/12/30 11:52:13;;;;;;;11.55;1.55;;;7.70;99.90;;;;;;5066918;28;20049;-79
2023/12/30 11:54:39;;;;;;;10.68;1.70;;;7.70;99.90;;;;;;5052922;28;20053;-80
2023/12/30 11:57:09;;;;;;;6.63;1.42;;;7.70;99.90;;;;;;5057979;28;20047;-79
2023/12/30 11:59:35;;;;;;;9.48;1.67;;;8.10;99.90;;;;;;5072296;28;20458;-79
2023/12/30 12:02:14;;;;;;;9.48;1.50;;;7.70;99.90;;;;;;5072770;28;20049;-79
2023/12/30 12:04:40;;;;;;;9.73;1.67;;;7.80;99.90;;;;;;5072779;28;20048;-79
2023/12/30 12:07:07;;;;;;;14.45;1.90;;;7.90;99.90;;;;;;5072617;28;20473;-79
2023/12/30 12:09:32;;;;;;;7.78;1.65;;;7.80;99.90;;;;;;5066308;28;20037;-79
2023/12/30 12:11:58;;;;;;;10.23;1.80;;;7.60;99.90;;;;;;5052871;28;20488;-79
2023/12/30 12:14:25;;;;;;;12.60;2.10;;;7.60;99.90;;;;;;5036158;28;20090;-79
2023/12/30 12:16:50;;;;;;;11.45;2.45;;;7.50;99.90;;;;;;5052513;28;20087;-79
2023/12/30 12:19:16;;;;;;;12.90;2.08;;;7.60;99.90;;;;;;5054878;28;20084;-80
2023/12/30 12:21:42;;;;;;;9.35;2.20;;;7.50;99.90;;;;;;5072345;28;20066;-79
2023/12/30 12:24:07;;;;;;;9.57;1.40;;;7.50;99.90;;;;;;5072490;28;20052;-79
2023/12/30 12:26:33;;;;;;;7.13;1.65;;;8.00;99.90;;;;;;5072427;28;20377;-79
2023/12/30 12:28:59;;;;;;;13.40;2.42;;;7.50;99.90;;;;;;5067672;28;20072;-80
2023/12/30 12:31:30;;;;;;;8.60;1.90;;;7.70;99.90;;;;;;5052008;28;20048;-79
2023/12/30 12:33:55;;;;;;;15.98;2.28;;;7.60;99.90;;;;;;5052054;28;20103;-79
2023/12/30 12:36:21;;;;;;;11.77;1.95;;;7.50;99.90;;;;;;5054590;28;20048;-80
2023/12/30 12:38:47;;;;;;;12.88;2.63;;;7.50;99.90;;;;;;5063768;28;20362;-79
2023/12/30 12:41:13;;;;;;;12.23;2.25;;;7.50;99.90;;;;;;5071798;28;20053;-80
2023/12/30 12:43:39;;;;;;;16.92;2.60;;;7.80;99.90;;;;;;5072112;28;20051;-79
2023/12/30 12:46:05;;;;;;;11.00;2.20;;;7.50;99.90;;;;;;5071998;28;20388;-79
2023/12/30 12:48:30;;;;;;;11.00;2.10;;;7.50;99.90;;;;;;5071855;28;20040;-79